createdAt,value
2022-09-13T00:00:39.528Z,18.30
2022-09-13T00:06:41.214Z,18.30
2022-09-13T00:12:43.367Z,18.30
2022-09-13T00:18:45.094Z,18.30
2022-09-13T00:24:46.817Z,18.20
2022-09-13T00:30:48.471Z,18.10
2022-09-13T00:36:50.053Z,18.10
2022-09-13T00:42:51.626Z,18.10
2022-09-13T00:48:55.377Z,18.00
2022-09-13T00:55:00.050Z,18.00
2022-09-13T01:01:03.549Z,18.00
2022-09-13T01:07:07.691Z,17.90
2022-09-13T01:13:21.294Z,17.90
2022-09-13T01:19:23.316Z,17.80
2022-09-13T01:25:43.893Z,17.80
2022-09-13T01:31:48.376Z,17.80
2022-09-13T01:38:08.512Z,17.80
2022-09-13T01:44:10.074Z,17.70
2022-09-13T01:50:25.378Z,17.70
2022-09-13T01:56:37.200Z,17.60
2022-09-13T02:02:41.686Z,17.60
2022-09-13T02:08:43.250Z,17.60
2022-09-13T02:14:48.670Z,17.70
2022-09-13T02:20:51.887Z,17.70
2022-09-13T02:26:54.585Z,17.60
2022-09-13T02:32:58.673Z,17.60
2022-09-13T02:39:02.045Z,17.70
2022-09-13T02:45:05.690Z,17.60
2022-09-13T02:51:19.293Z,17.40
2022-09-13T02:57:23.683Z,17.40
2022-09-13T03:03:25.439Z,17.40
2022-09-13T03:09:27.331Z,17.00
2022-09-13T03:15:47.030Z,16.50
2022-09-13T03:21:54.498Z,16.50
2022-09-13T03:28:08.221Z,16.70
2022-09-13T03:34:13.597Z,16.90
2022-09-13T03:40:26.092Z,16.80
2022-09-13T03:46:40.226Z,16.70
2022-09-13T03:52:46.350Z,16.70
2022-09-13T03:58:48.494Z,16.70
2022-09-13T04:04:50.796Z,16.70
2022-09-13T04:10:52.457Z,16.70
2022-09-13T04:16:55.151Z,16.70
2022-09-13T04:22:57.606Z,16.90
2022-09-13T04:28:59.191Z,17.00
2022-09-13T04:35:00.774Z,16.90
2022-09-13T04:41:02.371Z,17.00
2022-09-13T04:47:04.088Z,17.00
2022-09-13T04:53:05.661Z,17.00
2022-09-13T04:59:07.253Z,17.10
2022-09-13T05:05:08.927Z,17.20
2022-09-13T05:11:10.608Z,17.20
2022-09-13T05:17:12.195Z,17.20
2022-09-13T05:23:13.846Z,17.20
2022-09-13T05:29:15.451Z,17.30
2022-09-13T05:35:17.044Z,17.30
2022-09-13T05:41:18.780Z,17.30
2022-09-13T05:47:20.350Z,17.30
2022-09-13T05:53:22.013Z,17.30
2022-09-13T05:59:23.678Z,17.30
2022-09-13T06:05:29.835Z,17.40
2022-09-13T06:11:33.400Z,17.40
2022-09-13T06:17:35.037Z,17.40
2022-09-13T06:23:37.119Z,17.50
2022-09-13T06:29:38.688Z,17.50
2022-09-13T06:35:40.253Z,17.70
2022-09-13T06:41:41.823Z,17.70
2022-09-13T06:47:43.531Z,17.80
2022-09-13T06:53:46.700Z,17.90
2022-09-13T06:59:48.256Z,17.90
2022-09-13T07:05:49.865Z,17.90
2022-09-13T07:11:53.207Z,17.90
2022-09-13T07:17:54.786Z,17.90
2022-09-13T07:23:56.648Z,17.90
2022-09-13T07:29:58.340Z,17.90
2022-09-13T07:36:03.493Z,18.00
2022-09-13T07:42:05.140Z,17.90
2022-09-13T07:48:06.925Z,17.90
2022-09-13T07:54:13.276Z,17.90
2022-09-13T08:00:15.110Z,18.10
2022-09-13T08:06:16.700Z,18.10
2022-09-13T08:12:18.293Z,18.30
2022-09-13T08:18:20.027Z,18.30
2022-09-13T08:24:21.710Z,18.30
2022-09-13T08:30:23.392Z,18.40
2022-09-13T08:36:26.242Z,18.40
2022-09-13T08:42:33.272Z,18.40
2022-09-13T08:48:36.232Z,18.40
2022-09-13T08:54:37.840Z,18.50
2022-09-13T09:00:40.992Z,18.60
2022-09-13T09:06:43.052Z,18.60
2022-09-13T09:12:47.162Z,18.60
2022-09-13T09:18:49.628Z,18.60
2022-09-13T09:24:54.306Z,18.60
2022-09-13T09:31:00.540Z,18.70
2022-09-13T09:37:11.224Z,18.80
2022-09-13T09:43:20.062Z,18.90
2022-09-13T09:49:45.357Z,19.00
2022-09-13T09:55:57.556Z,19.00
2022-09-13T10:02:00.608Z,19.10
2022-09-13T10:08:05.258Z,19.20
2022-09-13T10:14:06.962Z,19.30
2022-09-13T10:20:14.611Z,19.40
2022-09-13T10:26:18.561Z,19.50
2022-09-13T10:32:20.536Z,19.60
2022-09-13T10:38:45.516Z,19.40
2022-09-13T10:45:07.973Z,19.30
2022-09-13T10:51:21.519Z,19.20
2022-09-13T10:57:32.571Z,19.30
2022-09-13T11:03:44.899Z,19.40
2022-09-13T11:10:02.940Z,19.30
2022-09-13T11:16:04.501Z,19.30
2022-09-13T11:22:25.041Z,19.40
2022-09-13T11:28:39.925Z,19.40
2022-09-13T11:35:02.582Z,19.30
2022-09-13T11:41:19.406Z,19.40
2022-09-13T11:47:32.992Z,19.70
2022-09-13T11:53:39.325Z,19.80
2022-09-13T11:59:44.982Z,19.70
2022-09-13T12:05:55.657Z,19.60
2022-09-13T12:12:13.258Z,19.80
2022-09-13T12:18:21.210Z,19.70
2022-09-13T12:24:35.887Z,19.60
2022-09-13T12:30:42.390Z,19.70
2022-09-13T12:36:51.706Z,19.70
2022-09-13T12:42:56.156Z,19.90
2022-09-13T12:49:11.957Z,20.20
2022-09-13T12:55:45.519Z,20.10
2022-09-13T13:01:45.497Z,20.20
2022-09-13T13:07:52.005Z,20.20
2022-09-13T13:14:09.458Z,20.20
2022-09-13T13:20:30.035Z,20.10
2022-09-13T13:26:51.317Z,20.00
2022-09-13T13:33:13.207Z,19.90
2022-09-13T13:39:27.037Z,19.90
2022-09-13T13:45:29.266Z,20.00
2022-09-13T13:51:30.995Z,20.20
2022-09-13T13:57:32.567Z,20.40
2022-09-13T14:03:40.264Z,20.80
2022-09-13T14:09:51.340Z,20.70
2022-09-13T14:16:05.723Z,20.80
2022-09-13T14:22:13.501Z,20.90
2022-09-13T14:28:20.081Z,21.10
2022-09-13T14:34:28.759Z,21.30
2022-09-13T14:40:30.505Z,21.30
2022-09-13T14:46:37.771Z,21.00
2022-09-13T14:52:46.509Z,20.90
2022-09-13T14:58:50.536Z,21.00
2022-09-13T15:04:56.033Z,21.40
2022-09-13T15:10:58.124Z,21.60
2022-09-13T15:17:10.253Z,21.90
2022-09-13T15:23:19.036Z,21.70
2022-09-13T15:29:20.658Z,21.80
2022-09-13T15:35:23.669Z,22.40
2022-09-13T15:41:28.728Z,22.70
2022-09-13T15:47:30.374Z,22.60
2022-09-13T15:53:31.982Z,22.60
2022-09-13T15:59:33.850Z,23.00
2022-09-13T16:05:36.645Z,23.00
2022-09-13T16:11:38.265Z,22.60
2022-09-13T16:17:40.650Z,22.50
2022-09-13T16:23:42.305Z,22.30
2022-09-13T16:29:51.196Z,21.80
2022-09-13T16:35:52.832Z,21.40
2022-09-13T16:41:54.815Z,21.00
2022-09-13T16:47:56.375Z,20.90
2022-09-13T16:53:58.053Z,20.80
2022-09-13T16:59:59.696Z,20.70
2022-09-13T17:06:02.309Z,20.50
2022-09-13T17:12:04.241Z,20.40
2022-09-13T17:18:05.939Z,20.40
2022-09-13T17:24:13.142Z,20.30
2022-09-13T17:30:15.278Z,20.10
2022-09-13T17:36:17.250Z,19.90
2022-09-13T17:42:22.960Z,19.90
2022-09-13T17:48:25.125Z,19.70
2022-09-13T17:54:26.934Z,19.60
2022-09-13T18:00:28.767Z,19.60
2022-09-13T18:06:30.409Z,19.50
2022-09-13T18:12:32.576Z,19.40
2022-09-13T18:18:35.118Z,19.30
2022-09-13T18:24:36.754Z,19.10
2022-09-13T18:30:38.365Z,19.00
2022-09-13T18:36:41.124Z,18.70
2022-09-13T18:42:45.122Z,18.70
2022-09-13T18:48:48.944Z,18.40
2022-09-13T18:54:50.600Z,18.30
2022-09-13T19:01:06.019Z,18.10
2022-09-13T19:07:07.784Z,18.10
2022-09-13T19:13:10.902Z,18.00
2022-09-13T19:19:12.615Z,17.60
2022-09-13T19:25:14.265Z,17.60
2022-09-13T19:31:16.028Z,17.70
2022-09-13T19:37:17.723Z,17.60
2022-09-13T19:43:20.030Z,17.60
2022-09-13T19:49:21.621Z,17.60
2022-09-13T19:55:23.664Z,17.50
2022-09-13T20:01:26.438Z,17.50
2022-09-13T20:07:28.041Z,17.50
2022-09-13T20:13:30.075Z,17.40
2022-09-13T20:19:50.200Z,17.20
2022-09-13T20:25:52.118Z,17.10
2022-09-13T20:31:55.365Z,17.10
2022-09-13T20:37:56.958Z,17.00
2022-09-13T20:44:01.465Z,17.00
2022-09-13T20:50:06.147Z,17.10
2022-09-13T20:56:17.766Z,17.10
2022-09-13T21:02:19.653Z,17.20
2022-09-13T21:08:40.062Z,17.20
2022-09-13T21:14:41.797Z,17.20
2022-09-13T21:20:43.360Z,17.10
2022-09-13T21:26:45.015Z,17.00
2022-09-13T21:32:46.597Z,16.90
2022-09-13T21:38:48.201Z,16.90
2022-09-13T21:44:49.961Z,16.90
2022-09-13T21:50:51.668Z,16.80
2022-09-13T21:56:54.257Z,16.70
2022-09-13T22:02:55.869Z,16.70
2022-09-13T22:08:58.402Z,16.60
2022-09-13T22:14:59.985Z,16.60
2022-09-13T22:21:08.842Z,16.50
2022-09-13T22:27:10.529Z,16.50
2022-09-13T22:33:12.117Z,16.40
2022-09-13T22:39:14.398Z,16.20
2022-09-13T22:45:16.103Z,16.10
2022-09-13T22:51:18.501Z,16.20
2022-09-13T22:57:20.175Z,16.10
2022-09-13T23:03:21.809Z,16.00
2022-09-13T23:09:23.423Z,16.10
2022-09-13T23:15:25.230Z,15.90
2022-09-13T23:21:30.963Z,16.00
2022-09-13T23:27:32.525Z,16.10
2022-09-13T23:33:34.180Z,15.90
2022-09-13T23:39:35.766Z,15.90
2022-09-13T23:45:37.401Z,15.80
2022-09-13T23:51:39.383Z,15.70
2022-09-13T23:57:41.002Z,15.70
